• Join FlightAware (Why Join?)
  • Login
  • US Flag 
05:25AM EST


 

Airport Tracker/Info


-or-


 

Live Flight TrackerFlight Track Log ✈ N589H ✈ 15-Jul-2014 ✈ KPIE - MDSD / SDQ

Flight Track Log - Related Links

Times and Time Zones

All times are in EDT time to prevent confusion due to time zone crossing. See the N589H flight status page for this flight to view local times or setup timezone preferences in your user account.

Time Position Orientation Groundspeed Altitude Reporting Facility
EDT Latitude Longitude Course Direction KTS MPH feet Rate Location/Type
02:29PM 27.9000 -82.6833 196° South 147 169 500  Level Tampa TRACON
02:30PM 27.8500 -82.7000 196° South 166 191 2,100 1,680 Climbing Tampa TRACON
02:31PM 27.8167 -82.7167 204° Southwest 183 211 3,900 1,980 Climbing Tampa TRACON
02:32PM 27.7500 -82.7000 168° South 202 232 6,100 2,100 Climbing Tampa TRACON
02:34PM 27.6211 -82.6831 173° South 207 238 11,200 2,040 Climbing Miami Center
02:35PM 27.5592 -82.6756 174° South 217 250 13,200 1,860 Climbing Miami Center
02:36PM 27.5006 -82.6550 163° South 224 258 15,100 1,920 Climbing Miami Center
02:37PM 27.4644 -82.5761 117° Southeast 240 276 17,200 1,680 Climbing Miami Center
02:38PM 27.4328 -82.5047 117° Southeast 245 282 18,600 1,560 Climbing Miami Center
02:39PM 27.3986 -82.4286 117° Southeast 256 295 20,400 1,560 Climbing Miami Center
02:40PM 27.3572 -82.3642 126° Southeast 266 306 21,900 1,500 Climbing Miami Center
02:41PM 27.3006 -82.3011 135° Southeast 271 312 23,500 1,440 Climbing Miami Center
02:42PM 27.2433 -82.2367 135° Southeast 274 315 24,900 1,200 Climbing Miami Center
02:43PM 27.1856 -82.1700 134° Southeast 282 325 26,100 1,140 Climbing Miami Center
02:44PM 27.1250 -82.1014 135° Southeast 291 335 27,300 1,080 Climbing Miami Center
02:45PM 27.0697 -82.0383 135° Southeast 292 336 28,400 1,020 Climbing Miami Center
02:46PM 27.0078 -81.9678 135° Southeast 301 346 29,400 840 Climbing Miami Center
02:47PM 26.9528 -81.9064 135° Southeast 301 346 30,200 780 Climbing Miami Center
02:48PM 26.8925 -81.8389 135° Southeast 305 351 31,000 780 Climbing Miami Center
02:49PM 26.8303 -81.7681 135° Southeast 305 351 31,900 840 Climbing Miami Center
02:50PM 26.7628 -81.6911 134° Southeast 304 350 32,800 480 Climbing Miami Center
02:51PM 26.7003 -81.6211 135° Southeast 315 362 32,900 240 Climbing Miami Center
02:53PM 26.6328 -81.5447 135° Southeast 328 377 33,300 480 Climbing Miami Center
02:54PM 26.5639 -81.4683 135° Southeast 330 380 33,900 540 Climbing Miami Center
02:55PM 26.5022 -81.3983 135° Southeast 330 380 34,500 480 Climbing Miami Center
02:56PM 26.4397 -81.3289 135° Southeast 329 379 34,900 180 Climbing Miami Center
02:57PM 26.3739 -81.2558 135° Southeast 331 381 34,900  Level Miami Center
02:58PM 26.3056 -81.1803 135° Southeast 344 396 34,900  Level Miami Center
02:59PM 26.2356 -81.1025 135° Southeast 352 405 34,900  Level Miami Center
03:00PM 26.1494 -81.0072 135° Southeast 361 415 34,900  Level Miami Center
03:01PM 26.0803 -80.9228 132° Southeast 366 421 34,900  Level Miami Center
03:02PM 26.0531 -80.8139 106° East 365 420 34,900  Level Miami Center
03:03PM 26.0253 -80.7058 106° East 364 419 34,900  Level Miami Center
03:04PM 25.9939 -80.5986 108° East 364 419 34,900  Level Miami Center
03:05PM 25.9625 -80.4894 108° East 366 421 34,900  Level Miami Center
03:06PM 25.9297 -80.3800 108° East 368 423 34,900  Level Miami Center
03:07PM 25.8969 -80.2711 108° East 369 425 34,900  Level Miami Center
03:08PM 25.8647 -80.1617 108° East 370 426 34,900  Level Miami Center
03:09PM 25.8325 -80.0514 108° East 375 432 34,900  Level Miami Center
03:10PM 25.7939 -79.9194 108° East 374 430 34,900  Level Miami Center
03:11PM 25.7608 -79.8111 109° East 372 428 34,900  Level Miami Center
03:12PM 25.7278 -79.7022 109° East 373 429 34,900  Level Miami Center
03:13PM 25.6958 -79.5922 108° East 373 429 34,900  Level Miami Center
03:14PM 25.6625 -79.4833 109° East 374 430 34,900  Level Miami Center
03:15PM 25.6292 -79.3750 109° East 374 430 34,900  Level Miami Center
03:16PM 25.5972 -79.2661 108° East 372 428 34,900  Level Miami Center
03:17PM 25.5619 -79.1569 110° East 375 432 34,900  Level Miami Center
03:18PM 25.5217 -79.0256 109° East 375 432 34,900  Level Miami Center
03:19PM 25.4861 -78.9139 109° East 376 433 34,900  Level Miami Center
03:20PM 25.4544 -78.8047 108° East 375 432 34,900  Level Miami Center
03:21PM 25.4203 -78.6964 109° East 374 430 34,900  Level Miami Center
03:22PM 25.3831 -78.5783 109° East 372 428 34,900  Level Miami Center
03:23PM 25.3500 -78.4711 109° East 368 423 34,900  Level Miami Center
03:24PM 25.3178 -78.3636 108° East 366 421 34,900  Level Miami Center
03:25PM 25.2833 -78.2569 110° East 367 422 34,900  Level Miami Center
03:26PM 25.2453 -78.1397 110° East 367 422 34,900  Level Miami Center
03:27PM 25.2136 -78.0328 108° East 367 422 34,900  Level Miami Center
03:28PM 25.1797 -77.9261 109° East 367 422 34,900  Level Miami Center
03:29PM 25.1453 -77.8192 110° East 369 425 34,900  Level Miami Center
03:30PM 25.1114 -77.7117 109° East 370 426 34,900  Level Miami Center
03:32PM 25.0733 -77.5942 110° East 370 426 34,900  Level Miami Center
03:33PM 25.0431 -77.5044 110° East 370 426 34,900  Level Miami Center
03:34PM 24.9972 -77.3886 114° Southeast 388 447 34,900  Level Miami Center
03:35PM 24.9225 -77.2872 129° Southeast 380 437 34,900  Level Miami Center
03:36PM 24.8611 -77.1936 126° Southeast 379 436 34,900  Level Miami Center
03:37PM 24.8006 -77.0992 125° Southeast 377 434 34,900  Level Miami Center
03:38PM 24.7317 -76.9961 126° Southeast 378 435 34,900  Level Miami Center
03:39PM 24.6697 -76.9011 126° Southeast 379 436 34,900  Level Miami Center
03:40PM 24.6078 -76.8050 125° Southeast 381 438 34,900  Level Miami Center
03:41PM 24.5436 -76.7097 127° Southeast 384 442 34,900  Level Miami Center
03:42PM 24.4753 -76.6047 126° Southeast 384 442 34,900  Level Miami Center
03:43PM 24.4208 -76.5211 126° Southeast 386 444 34,900  Level Miami Center
03:44PM 24.3572 -76.4256 126° Southeast 386 444 34,900  Level Miami Center
03:45PM 24.2822 -76.3111 126° Southeast 385 443 34,900  Level Miami Center
03:46PM 24.2192 -76.2158 126° Southeast 384 442 34,900  Level Miami Center
03:47PM 24.1564 -76.1219 126° Southeast 384 442 34,900  Level Miami Center
03:48PM 24.0928 -76.0267 126° Southeast 384 442 34,900  Level Miami Center
03:49PM 24.0294 -75.9322 126° Southeast 384 442 34,900  Level Miami Center
03:50PM 23.9658 -75.8369 126° Southeast 384 442 34,900  Level Miami Center
03:51PM 23.9025 -75.7428 126° Southeast 384 442 34,900  Level Miami Center
03:52PM 23.8386 -75.6475 126° Southeast 384 442 34,900  Level Miami Center
03:53PM 23.7753 -75.5519 126° Southeast 384 442 34,900  Level Miami Center
03:54PM 23.6978 -75.4378 127° Southeast 384 442 34,900  Level Miami Center
03:55PM 23.6342 -75.3425 126° Southeast 384 442 34,900  Level Miami Center
03:56PM 23.5706 -75.2489 127° Southeast 384 442 34,900  Level Miami Center
03:57PM 23.5200 -75.1472 118° Southeast 383 441 34,900  Level Miami Center
03:58PM 23.4697 -75.0447 118° Southeast 383 441 34,900  Level Miami Center
03:59PM 23.4178 -74.9431 119° Southeast 383 441 34,900  Level Miami Center
04:00PM 23.3656 -74.8431 120° Southeast 382 440 34,900  Level Miami Center
04:01PM 23.3136 -74.7414 119° Southeast 382 440 34,900  Level Miami Center
04:02PM 23.2628 -74.6397 119° Southeast 382 440 34,900  Level Miami Center
04:03PM 23.1992 -74.5189 120° Southeast 382 440 34,900  Level Miami Center
04:04PM 23.1472 -74.4181 119° Southeast 381 438 34,900  Level Miami Center
04:05PM 23.0981 -74.3153 117° Southeast 381 438 34,900  Level Miami Center
04:06PM 23.0425 -74.2167 121° Southeast 381 438 34,900  Level Miami Center
04:08PM 22.9914 -74.1158 119° Southeast 381 438 34,900  Level Miami Center
04:09PM 22.9417 -74.0150 118° Southeast 381 438 34,900  Level Miami Center
04:11PM 22.8306 -73.7950 119° Southeast 380 437 34,900  Level Miami Center
04:12PM 22.7786 -73.6958 120° Southeast 380 437 34,900  Level Miami Center
04:13PM 22.7239 -73.5972 121° Southeast 380 437 34,900  Level Miami Center
04:14PM 22.6594 -73.5058 127° Southeast 380 437 34,900  Level Miami Center
04:15PM 22.5878 -73.4189 132° Southeast 381 438 34,900  Level Miami Center
04:16PM 22.5189 -73.3317 131° Southeast 381 438 34,900  Level Miami Center
04:17PM 22.4431 -73.2375 131° Southeast 383 441 34,900  Level Miami Center
04:18PM 22.3736 -73.1514 131° Southeast 382 440 34,900  Level Miami Center
04:19PM 22.3025 -73.0656 132° Southeast 382 440 34,900  Level Miami Center
04:20PM 22.2200 -72.9611 130° Southeast 380 437 34,900  Level Miami Center
04:21PM 22.1503 -72.8761 132° Southeast 381 438 34,900  Level Miami Center
04:22PM 22.0814 -72.7906 131° Southeast 379 436 34,900  Level Miami Center
04:23PM 22.0111 -72.7053 132° Southeast 380 437 34,900  Level Miami Center
04:24PM 21.9436 -72.6192 130° Southeast 378 435 34,900  Level Miami Center
04:25PM 21.8719 -72.5344 132° Southeast 379 436 34,900  Level Miami Center
04:26PM 21.8011 -72.4492 132° Southeast 379 436 34,900  Level Miami Center
04:27PM 21.7161 -72.3464 132° Southeast 380 437 34,900  Level Miami Center
04:28PM 21.6456 -72.2614 132° Southeast 380 437 34,900  Level Miami Center
04:29PM 21.5764 -72.1767 131° Southeast 379 436 34,900  Level Miami Center
04:30PM 21.5083 -72.0911 131° Southeast 378 435 34,900  Level Miami Center
04:31PM 21.4375 -72.0067 132° Southeast 378 435 34,900  Level Miami Center
04:32PM 21.3653 -71.9214 132° Southeast 381 438 34,900  Level Miami Center
04:33PM 21.2797 -71.8189 132° Southeast 383 441 34,900  Level Miami Center
04:34PM 21.2094 -71.7347 132° Southeast 383 441 34,900  Level Miami Center
04:35PM 21.1386 -71.6517 132° Southeast 383 441 34,900  Level Miami Center
04:36PM 21.0683 -71.5664 131° Southeast 383 441 34,900  Level Miami Center
04:37PM 20.9983 -71.4828 132° Southeast 383 441 34,900  Level Miami Center
04:38PM 20.9278 -71.3983 132° Southeast 383 441 34,900  Level Miami Center
04:39PM 20.8431 -71.2975 132° Southeast 383 441 34,900  Level Miami Center
04:41PM 20.7742 -71.2147 132° Southeast 382 440 34,900  Level Miami Center
04:42PM 20.7033 -71.1314 132° Southeast 381 438 34,900  Level Miami Center
04:43PM 20.6336 -71.0486 132° Southeast 381 438 34,900  Level Miami Center
04:44PM 20.5642 -70.9642 131° Southeast 380 437 34,900  Level Miami Center
04:45PM 20.4936 -70.8825 133° Southeast 379 436 34,900  Level Miami Center
04:46PM 20.4092 -70.7853 133° Southeast 378 435 34,900  Level Miami Center
04:47PM 20.3186 -70.7347 152° Southeast 374 430 34,900  Level Miami Center
04:49PM 20.1520 -70.6958 148° Southeast  Level FlightAware Approximate
04:56PM 19.5438 -70.4180 148° Southeast  Level FlightAware Approximate
04:57PM 19.4628 -70.3640 148° Southeast  Level FlightAware Approximate
04:58PM 19.3817 -70.3100 148° Southeast  Level FlightAware Approximate
04:59PM 19.2998 -70.2581 145° Southeast  Level FlightAware Approximate
05:00PM 19.2216 -70.1995 145° Southeast  Level FlightAware Approximate
05:01PM 19.1435 -70.1410 145° Southeast  Level FlightAware Approximate
05:02PM 19.0607 -70.0905 148° Southeast  Level FlightAware Approximate
05:03PM 18.9798 -70.0365 148° Southeast  Level FlightAware Approximate
05:04PM 18.8995 -69.9813 146° Southeast  Level FlightAware Approximate
05:05PM 18.8197 -69.9254 146° Southeast  Level FlightAware Approximate
05:06PM 18.7393 -69.8706 148° Southeast  Level FlightAware Approximate
05:07PM 18.6583 -69.8167 148° Southeast  Level FlightAware Approximate
05:08PM 18.5794 -69.7595 145° Southeast  Level FlightAware Approximate
05:09PM 18.5014 -69.7010 145° Southeast  Level FlightAware Approximate
05:10PM 18.4297 -69.6689 150° Southeast  Level Estimated
05:11PM 18.4297 -69.6689 126° Southeast  Level Estimated
05:12PM 18.4297 -69.6689 126° Southeast  Level Estimated
05:13PM 18.4297 -69.6689 126° Southeast  Level Estimated
05:14PM 18.4297 -69.6689 126° Southeast  Level Estimated
05:15PM 18.4297 -69.6689 126° Southeast  Level Estimated
05:16PM 18.4297 -69.6689 126° Southeast  Level Estimated
05:17PM 18.4297 -69.6689 126° Southeast  Level Estimated
05:18PM 18.4297 -69.6689 126° Southeast  Level Estimated
05:19PM 18.4297 -69.6689 126° Southeast  Level Estimated